sensor_id;sensor_type;location;lat;lon;timestamp;temperature;humidity
75010;DHT22;63564;46.840;18.336;2022-10-04T00:03:31;11.53;78.03
75010;DHT22;63564;46.840;18.336;2022-10-04T00:06:32;11.53;78.13
75010;DHT22;63564;46.840;18.336;2022-10-04T00:09:42;11.50;78.21
75010;DHT22;63564;46.840;18.336;2022-10-04T00:13:05;11.51;78.39
75010;DHT22;63564;46.840;18.336;2022-10-04T00:16:06;11.47;78.59
75010;DHT22;63564;46.840;18.336;2022-10-04T00:22:30;11.51;78.32
75010;DHT22;63564;46.840;18.336;2022-10-04T00:25:35;11.51;78.77
75010;DHT22;63564;46.840;18.336;2022-10-04T00:38:27;11.48;78.31
75010;DHT22;63564;46.840;18.336;2022-10-04T00:41:33;11.46;79.01
75010;DHT22;63564;46.840;18.336;2022-10-04T00:44:46;11.61;77.52
75010;DHT22;63564;46.840;18.336;2022-10-04T00:50:53;11.65;77.38
75010;DHT22;63564;46.840;18.336;2022-10-04T00:57:08;11.70;78.18
75010;DHT22;63564;46.840;18.336;2022-10-04T01:00:13;11.58;77.98
75010;DHT22;63564;46.840;18.336;2022-10-04T01:03:20;11.70;77.15
75010;DHT22;63564;46.840;18.336;2022-10-04T01:06:22;11.64;77.14
75010;DHT22;63564;46.840;18.336;2022-10-04T01:09:24;11.68;77.07
75010;DHT22;63564;46.840;18.336;2022-10-04T01:12:39;11.77;76.53
75010;DHT22;63564;46.840;18.336;2022-10-04T01:15:53;11.81;76.14
75010;DHT22;63564;46.840;18.336;2022-10-04T01:25:42;11.61;77.32
75010;DHT22;63564;46.840;18.336;2022-10-04T01:28:43;11.61;77.28
75010;DHT22;63564;46.840;18.336;2022-10-04T01:31:49;11.53;77.56
75010;DHT22;63564;46.840;18.336;2022-10-04T01:34:49;11.41;78.64
75010;DHT22;63564;46.840;18.336;2022-10-04T01:37:50;11.41;78.16
75010;DHT22;63564;46.840;18.336;2022-10-04T01:40:54;11.34;78.39
75010;DHT22;63564;46.840;18.336;2022-10-04T01:43:59;11.36;78.35
75010;DHT22;63564;46.840;18.336;2022-10-04T01:47:04;11.37;78.23
75010;DHT22;63564;46.840;18.336;2022-10-04T01:50:12;11.44;78.09
75010;DHT22;63564;46.840;18.336;2022-10-04T01:53:24;11.41;77.84
75010;DHT22;63564;46.840;18.336;2022-10-04T01:56:37;11.46;77.51
75010;DHT22;63564;46.840;18.336;2022-10-04T02:00:01;11.47;77.57
75010;DHT22;63564;46.840;18.336;2022-10-04T02:03:10;11.36;78.52
75010;DHT22;63564;46.840;18.336;2022-10-04T02:06:14;11.34;78.78
75010;DHT22;63564;46.840;18.336;2022-10-04T02:09:19;11.27;79.27
75010;DHT22;63564;46.840;18.336;2022-10-04T02:12:21;11.09;80.52
75010;DHT22;63564;46.840;18.336;2022-10-04T02:15:23;10.93;82.06
75010;DHT22;63564;46.840;18.336;2022-10-04T02:18:28;10.85;82.64
75010;DHT22;63564;46.840;18.336;2022-10-04T02:21:30;10.73;83.11
75010;DHT22;63564;46.840;18.336;2022-10-04T02:24:33;10.65;83.79
75010;DHT22;63564;46.840;18.336;2022-10-04T02:27:34;10.62;83.72
75010;DHT22;63564;46.840;18.336;2022-10-04T02:30:37;10.60;83.77
75010;DHT22;63564;46.840;18.336;2022-10-04T02:33:40;10.65;83.47
75010;DHT22;63564;46.840;18.336;2022-10-04T02:36:41;10.69;83.54
75010;DHT22;63564;46.840;18.336;2022-10-04T02:39:47;10.69;83.48
75010;DHT22;63564;46.840;18.336;2022-10-04T02:43:02;10.68;83.21
75010;DHT22;63564;46.840;18.336;2022-10-04T02:46:16;10.65;83.38
75010;DHT22;63564;46.840;18.336;2022-10-04T02:49:35;10.60;83.61
75010;DHT22;63564;46.840;18.336;2022-10-04T02:52:45;10.54;84.54
75010;DHT22;63564;46.840;18.336;2022-10-04T02:55:49;10.55;83.99
75010;DHT22;63564;46.840;18.336;2022-10-04T02:58:50;10.51;84.37
75010;DHT22;63564;46.840;18.336;2022-10-04T03:01:55;10.54;84.54
75010;DHT22;63564;46.840;18.336;2022-10-04T03:05:07;10.55;84.63
75010;DHT22;63564;46.840;18.336;2022-10-04T03:08:08;10.71;84.07
75010;DHT22;63564;46.840;18.336;2022-10-04T03:11:11;10.79;83.43
75010;DHT22;63564;46.840;18.336;2022-10-04T03:14:16;10.86;83.45
75010;DHT22;63564;46.840;18.336;2022-10-04T03:17:17;10.83;83.50
75010;DHT22;63564;46.840;18.336;2022-10-04T03:20:18;10.83;83.66
75010;DHT22;63564;46.840;18.336;2022-10-04T03:23:20;10.82;83.11
75010;DHT22;63564;46.840;18.336;2022-10-04T03:26:31;10.85;83.48
75010;DHT22;63564;46.840;18.336;2022-10-04T03:29:38;10.89;83.01
75010;DHT22;63564;46.840;18.336;2022-10-04T03:32:40;10.98;82.47
75010;DHT22;63564;46.840;18.336;2022-10-04T03:35:41;11.12;81.57
75010;DHT22;63564;46.840;18.336;2022-10-04T03:38:42;11.10;81.59
75010;DHT22;63564;46.840;18.336;2022-10-04T03:41:43;11.16;80.80
75010;DHT22;63564;46.840;18.336;2022-10-04T03:44:45;11.17;80.80
75010;DHT22;63564;46.840;18.336;2022-10-04T03:47:48;11.12;81.46
75010;DHT22;63564;46.840;18.336;2022-10-04T03:50:49;11.12;81.10
75010;DHT22;63564;46.840;18.336;2022-10-04T03:53:53;11.10;81.39
75010;DHT22;63564;46.840;18.336;2022-10-04T03:56:55;11.06;81.96
75010;DHT22;63564;46.840;18.336;2022-10-04T03:59:57;10.95;82.42
75010;DHT22;63564;46.840;18.336;2022-10-04T04:03:00;10.93;82.09
75010;DHT22;63564;46.840;18.336;2022-10-04T04:06:05;10.93;81.70
75010;DHT22;63564;46.840;18.336;2022-10-04T04:12:45;10.76;82.92
75010;DHT22;63564;46.840;18.336;2022-10-04T04:15:47;10.68;82.54
75010;DHT22;63564;46.840;18.336;2022-10-04T04:18:49;10.57;83.31
75010;DHT22;63564;46.840;18.336;2022-10-04T04:21:53;10.44;84.06
75010;DHT22;63564;46.840;18.336;2022-10-04T04:24:54;10.45;83.82
75010;DHT22;63564;46.840;18.336;2022-10-04T04:28:03;10.31;84.08
75010;DHT22;63564;46.840;18.336;2022-10-04T04:31:13;10.21;85.20
75010;DHT22;63564;46.840;18.336;2022-10-04T04:38:13;9.90;87.44
75010;DHT22;63564;46.840;18.336;2022-10-04T04:41:13;9.86;87.16
75010;DHT22;63564;46.840;18.336;2022-10-04T04:44:16;9.72;88.76
75010;DHT22;63564;46.840;18.336;2022-10-04T04:50:36;9.74;87.59
75010;DHT22;63564;46.840;18.336;2022-10-04T04:53:41;9.74;87.21
75010;DHT22;63564;46.840;18.336;2022-10-04T04:56:42;9.74;86.68
75010;DHT22;63564;46.840;18.336;2022-10-04T04:59:45;9.51;88.74
75010;DHT22;63564;46.840;18.336;2022-10-04T05:02:53;9.54;88.82
75010;DHT22;63564;46.840;18.336;2022-10-04T05:05:54;9.52;88.48
75010;DHT22;63564;46.840;18.336;2022-10-04T05:08:56;9.81;87.03
75010;DHT22;63564;46.840;18.336;2022-10-04T05:12:03;9.75;87.11
75010;DHT22;63564;46.840;18.336;2022-10-04T05:15:08;9.81;87.34
75010;DHT22;63564;46.840;18.336;2022-10-04T05:18:31;10.02;88.58
75010;DHT22;63564;46.840;18.336;2022-10-04T05:21:33;10.12;86.65
75010;DHT22;63564;46.840;18.336;2022-10-04T05:24:41;10.36;85.67
75010;DHT22;63564;46.840;18.336;2022-10-04T05:27:42;10.73;83.01
75010;DHT22;63564;46.840;18.336;2022-10-04T05:34:24;11.54;78.82
75010;DHT22;63564;46.840;18.336;2022-10-04T05:41:19;11.75;78.43
75010;DHT22;63564;46.840;18.336;2022-10-04T05:44:27;11.64;79.47
75010;DHT22;63564;46.840;18.336;2022-10-04T05:47:29;11.88;77.60
75010;DHT22;63564;46.840;18.336;2022-10-04T05:50:38;11.89;78.17
75010;DHT22;63564;46.840;18.336;2022-10-04T05:53:41;11.96;77.65
75010;DHT22;63564;46.840;18.336;2022-10-04T06:00:01;12.22;75.93
75010;DHT22;63564;46.840;18.336;2022-10-04T06:03:30;12.25;76.62
75010;DHT22;63564;46.840;18.336;2022-10-04T06:06:48;12.40;75.50
75010;DHT22;63564;46.840;18.336;2022-10-04T06:13:58;12.71;74.53
75010;DHT22;63564;46.840;18.336;2022-10-04T06:24:10;13.02;72.65
75010;DHT22;63564;46.840;18.336;2022-10-04T06:27:20;13.14;73.41
75010;DHT22;63564;46.840;18.336;2022-10-04T06:30:30;13.27;72.50
75010;DHT22;63564;46.840;18.336;2022-10-04T06:37:18;13.66;71.19
75010;DHT22;63564;46.840;18.336;2022-10-04T06:54:30;15.04;71.00
75010;DHT22;63564;46.840;18.336;2022-10-04T07:01:02;15.08;67.06
75010;DHT22;63564;46.840;18.336;2022-10-04T07:04:20;14.22;70.56
75010;DHT22;63564;46.840;18.336;2022-10-04T07:10:49;13.44;76.86
75010;DHT22;63564;46.840;18.336;2022-10-04T07:14:09;13.20;79.45
75010;DHT22;63564;46.840;18.336;2022-10-04T07:17:15;13.12;81.64
75010;DHT22;63564;46.840;18.336;2022-10-04T07:20:27;13.06;79.54
75010;DHT22;63564;46.840;18.336;2022-10-04T07:23:40;13.38;78.02
75010;DHT22;63564;46.840;18.336;2022-10-04T07:26:51;13.85;78.47
75010;DHT22;63564;46.840;18.336;2022-10-04T07:29:54;13.63;76.40
75010;DHT22;63564;46.840;18.336;2022-10-04T07:32:55;13.87;76.24
75010;DHT22;63564;46.840;18.336;2022-10-04T07:36:09;13.85;76.01
75010;DHT22;63564;46.840;18.336;2022-10-04T07:42:25;14.24;73.95
75010;DHT22;63564;46.840;18.336;2022-10-04T07:45:34;14.53;74.19
75010;DHT22;63564;46.840;18.336;2022-10-04T07:48:39;14.81;72.52
75010;DHT22;63564;46.840;18.336;2022-10-04T08:01:26;14.76;69.94
75010;DHT22;63564;46.840;18.336;2022-10-04T08:05:02;15.08;68.41
75010;DHT22;63564;46.840;18.336;2022-10-04T08:14:52;15.17;69.88
75010;DHT22;63564;46.840;18.336;2022-10-04T08:21:07;15.20;71.49
75010;DHT22;63564;46.840;18.336;2022-10-04T08:31:22;15.35;70.14
75010;DHT22;63564;46.840;18.336;2022-10-04T08:38:26;15.28;70.50
75010;DHT22;63564;46.840;18.336;2022-10-04T08:48:59;16.42;66.57
75010;DHT22;63564;46.840;18.336;2022-10-04T08:59:10;15.51;67.38
75010;DHT22;63564;46.840;18.336;2022-10-04T09:02:45;15.79;67.20
75010;DHT22;63564;46.840;18.336;2022-10-04T09:09:29;15.96;65.78
75010;DHT22;63564;46.840;18.336;2022-10-04T09:12:55;15.87;65.65
75010;DHT22;63564;46.840;18.336;2022-10-04T09:16:14;15.72;66.42
75010;DHT22;63564;46.840;18.336;2022-10-04T09:19:39;16.11;64.33
75010;DHT22;63564;46.840;18.336;2022-10-04T09:29:40;15.69;66.31
75010;DHT22;63564;46.840;18.336;2022-10-04T09:42:56;15.28;69.49
75010;DHT22;63564;46.840;18.336;2022-10-04T09:52:36;15.56;66.76
75010;DHT22;63564;46.840;18.336;2022-10-04T10:02:45;15.31;70.23
75010;DHT22;63564;46.840;18.336;2022-10-04T10:06:07;15.21;69.94
75010;DHT22;63564;46.840;18.336;2022-10-04T10:19:57;15.73;68.63
75010;DHT22;63564;46.840;18.336;2022-10-04T10:23:11;15.70;69.61
75010;DHT22;63564;46.840;18.336;2022-10-04T10:36:23;15.86;67.63
75010;DHT22;63564;46.840;18.336;2022-10-04T10:46:45;16.62;63.93
75010;DHT22;63564;46.840;18.336;2022-10-04T10:54:16;16.47;65.73
75010;DHT22;63564;46.840;18.336;2022-10-04T10:57:09;16.38;63.09
75010;DHT22;63564;46.840;18.336;2022-10-04T11:00:20;16.38;65.84
75010;DHT22;63564;46.840;18.336;2022-10-04T11:20:14;16.32;65.49
75010;DHT22;63564;46.840;18.336;2022-10-04T11:23:42;16.64;64.77
75010;DHT22;63564;46.840;18.336;2022-10-04T11:27:02;16.68;64.92
75010;DHT22;63564;46.840;18.336;2022-10-04T11:37:16;17.44;58.81
75010;DHT22;63564;46.840;18.336;2022-10-04T11:50:31;17.59;59.79
75010;DHT22;63564;46.840;18.336;2022-10-04T11:53:54;17.89;59.86
75010;DHT22;63564;46.840;18.336;2022-10-04T12:00:19;17.61;59.33
75010;DHT22;63564;46.840;18.336;2022-10-04T12:03:47;17.57;59.82
75010;DHT22;63564;46.840;18.336;2022-10-04T12:13:43;16.89;61.48
75010;DHT22;63564;46.840;18.336;2022-10-04T12:20:36;16.45;61.10
75010;DHT22;63564;46.840;18.336;2022-10-04T12:27:39;16.31;59.60
75010;DHT22;63564;46.840;18.336;2022-10-04T12:37:19;15.90;63.09
75010;DHT22;63564;46.840;18.336;2022-10-04T12:50:56;16.56;60.06
75010;DHT22;63564;46.840;18.336;2022-10-04T12:54:13;16.32;65.41
75010;DHT22;63564;46.840;18.336;2022-10-04T13:00:27;17.26;57.30
75010;DHT22;63564;46.840;18.336;2022-10-04T13:11:01;17.40;56.10
75010;DHT22;63564;46.840;18.336;2022-10-04T13:21:01;17.27;59.88
75010;DHT22;63564;46.840;18.336;2022-10-04T13:24:24;16.72;60.42
75010;DHT22;63564;46.840;18.336;2022-10-04T13:27:51;16.83;59.42
75010;DHT22;63564;46.840;18.336;2022-10-04T13:31:04;17.02;57.79
75010;DHT22;63564;46.840;18.336;2022-10-04T13:37:30;16.79;58.38
75010;DHT22;63564;46.840;18.336;2022-10-04T13:40:37;16.76;58.36
75010;DHT22;63564;46.840;18.336;2022-10-04T13:47:45;16.90;59.94
75010;DHT22;63564;46.840;18.336;2022-10-04T13:54:20;17.54;58.21
75010;DHT22;63564;46.840;18.336;2022-10-04T13:57:49;17.55;58.52
75010;DHT22;63564;46.840;18.336;2022-10-04T14:23:46;18.06;57.90
75010;DHT22;63564;46.840;18.336;2022-10-04T14:47:08;17.30;61.47
75010;DHT22;63564;46.840;18.336;2022-10-04T14:50:18;16.97;60.02
75010;DHT22;63564;46.840;18.336;2022-10-04T14:56:44;16.56;62.03
75010;DHT22;63564;46.840;18.336;2022-10-04T15:06:52;15.97;67.37
75010;DHT22;63564;46.840;18.336;2022-10-04T15:10:06;15.78;69.53
75010;DHT22;63564;46.840;18.336;2022-10-04T15:14:02;15.85;66.53
75010;DHT22;63564;46.840;18.336;2022-10-04T15:16:58;15.97;66.23
75010;DHT22;63564;46.840;18.336;2022-10-04T15:20:23;15.80;67.25
75010;DHT22;63564;46.840;18.336;2022-10-04T15:23:41;15.56;68.64
75010;DHT22;63564;46.840;18.336;2022-10-04T15:26:54;15.58;68.08
75010;DHT22;63564;46.840;18.336;2022-10-04T15:33:31;15.39;69.95
75010;DHT22;63564;46.840;18.336;2022-10-04T15:36:49;15.36;69.76
75010;DHT22;63564;46.840;18.336;2022-10-04T15:40:02;15.34;69.17
75010;DHT22;63564;46.840;18.336;2022-10-04T15:43:42;15.24;71.01
75010;DHT22;63564;46.840;18.336;2022-10-04T15:46:54;15.07;72.30
75010;DHT22;63564;46.840;18.336;2022-10-04T15:50:04;14.91;73.02
75010;DHT22;63564;46.840;18.336;2022-10-04T16:00:10;14.80;74.65
75010;DHT22;63564;46.840;18.336;2022-10-04T16:06:37;14.91;75.19
75010;DHT22;63564;46.840;18.336;2022-10-04T16:09:57;14.70;77.21
75010;DHT22;63564;46.840;18.336;2022-10-04T16:19:32;14.30;76.39
75010;DHT22;63564;46.840;18.336;2022-10-04T16:22:35;14.36;76.30
75010;DHT22;63564;46.840;18.336;2022-10-04T16:25:37;14.26;76.52
75010;DHT22;63564;46.840;18.336;2022-10-04T16:32:35;14.00;76.29
75010;DHT22;63564;46.840;18.336;2022-10-04T16:35:36;13.75;77.87
75010;DHT22;63564;46.840;18.336;2022-10-04T16:38:46;13.71;76.43
75010;DHT22;63564;46.840;18.336;2022-10-04T16:42:06;13.59;76.74
75010;DHT22;63564;46.840;18.336;2022-10-04T16:48:59;13.62;74.78
75010;DHT22;63564;46.840;18.336;2022-10-04T16:55:29;13.39;77.04
75010;DHT22;63564;46.840;18.336;2022-10-04T17:09:01;13.26;75.47
75010;DHT22;63564;46.840;18.336;2022-10-04T17:12:17;13.20;75.58
75010;DHT22;63564;46.840;18.336;2022-10-04T17:28:22;12.71;76.78
75010;DHT22;63564;46.840;18.336;2022-10-04T17:31:51;12.64;77.32
75010;DHT22;63564;46.840;18.336;2022-10-04T17:35:11;12.54;77.91
75010;DHT22;63564;46.840;18.336;2022-10-04T17:48:23;12.23;79.48
75010;DHT22;63564;46.840;18.336;2022-10-04T17:51:45;12.13;80.47
75010;DHT22;63564;46.840;18.336;2022-10-04T17:55:17;10.71;88.91
75010;DHT22;63564;46.840;18.336;2022-10-04T17:58:25;10.72;89.30
75010;DHT22;63564;46.840;18.336;2022-10-04T18:01:35;10.81;87.83
75010;DHT22;63564;46.840;18.336;2022-10-04T18:04:46;10.93;87.38
75010;DHT22;63564;46.840;18.336;2022-10-04T18:17:37;10.68;88.34
75010;DHT22;63564;46.840;18.336;2022-10-04T18:21:00;10.91;86.27
75010;DHT22;63564;46.840;18.336;2022-10-04T18:24:17;10.95;86.20
75010;DHT22;63564;46.840;18.336;2022-10-04T18:27:23;10.93;85.32
75010;DHT22;63564;46.840;18.336;2022-10-04T18:30:24;10.86;86.80
75010;DHT22;63564;46.840;18.336;2022-10-04T18:36:52;10.31;90.79
75010;DHT22;63564;46.840;18.336;2022-10-04T18:40:05;10.17;91.34
75010;DHT22;63564;46.840;18.336;2022-10-04T18:43:31;10.31;89.71
75010;DHT22;63564;46.840;18.336;2022-10-04T18:46:38;10.54;87.30
75010;DHT22;63564;46.840;18.336;2022-10-04T18:49:46;10.72;86.36
75010;DHT22;63564;46.840;18.336;2022-10-04T18:53:01;10.64;86.51
75010;DHT22;63564;46.840;18.336;2022-10-04T18:56:09;10.69;86.25
75010;DHT22;63564;46.840;18.336;2022-10-04T18:59:35;10.73;86.19
75010;DHT22;63564;46.840;18.336;2022-10-04T19:19:11;10.23;90.24
75010;DHT22;63564;46.840;18.336;2022-10-04T19:25:49;10.69;85.80
75010;DHT22;63564;46.840;18.336;2022-10-04T19:29:06;10.60;86.79
75010;DHT22;63564;46.840;18.336;2022-10-04T19:32:13;10.52;86.98
75010;DHT22;63564;46.840;18.336;2022-10-04T19:35:24;10.61;86.67
75010;DHT22;63564;46.840;18.336;2022-10-04T19:44:55;10.51;86.00
75010;DHT22;63564;46.840;18.336;2022-10-04T19:48:00;10.48;86.20
75010;DHT22;63564;46.840;18.336;2022-10-04T19:51:11;10.64;85.58
75010;DHT22;63564;46.840;18.336;2022-10-04T19:54:17;10.85;85.32
75010;DHT22;63564;46.840;18.336;2022-10-04T19:57:33;10.76;86.42
75010;DHT22;63564;46.840;18.336;2022-10-04T20:00:35;10.65;86.89
75010;DHT22;63564;46.840;18.336;2022-10-04T20:03:36;10.72;86.51
75010;DHT22;63564;46.840;18.336;2022-10-04T20:06:52;10.79;86.14
75010;DHT22;63564;46.840;18.336;2022-10-04T20:10:22;9.69;91.77
75010;DHT22;63564;46.840;18.336;2022-10-04T20:13:22;9.09;93.19
75010;DHT22;63564;46.840;18.336;2022-10-04T20:19:52;9.10;93.32
75010;DHT22;63564;46.840;18.336;2022-10-04T20:22:54;9.32;91.51
75010;DHT22;63564;46.840;18.336;2022-10-04T20:25:58;9.66;91.22
75010;DHT22;63564;46.840;18.336;2022-10-04T20:28:58;8.82;92.37
75010;DHT22;63564;46.840;18.336;2022-10-04T20:31:59;8.51;94.02
75010;DHT22;63564;46.840;18.336;2022-10-04T20:35:00;8.65;94.20
75010;DHT22;63564;46.840;18.336;2022-10-04T20:41:01;8.92;93.58
75010;DHT22;63564;46.840;18.336;2022-10-04T20:44:02;8.79;93.40
75010;DHT22;63564;46.840;18.336;2022-10-04T20:47:21;8.73;93.82
75010;DHT22;63564;46.840;18.336;2022-10-04T20:50:28;8.90;93.43
75010;DHT22;63564;46.840;18.336;2022-10-04T20:53:31;8.89;93.94
75010;DHT22;63564;46.840;18.336;2022-10-04T20:56:32;8.72;94.16
75010;DHT22;63564;46.840;18.336;2022-10-04T20:59:32;8.77;94.14
75010;DHT22;63564;46.840;18.336;2022-10-04T21:02:32;8.99;93.28
75010;DHT22;63564;46.840;18.336;2022-10-04T21:05:33;8.71;93.14
75010;DHT22;63564;46.840;18.336;2022-10-04T21:08:35;8.56;93.50
75010;DHT22;63564;46.840;18.336;2022-10-04T21:11:46;8.76;93.61
75010;DHT22;63564;46.840;18.336;2022-10-04T21:15:16;8.87;93.07
75010;DHT22;63564;46.840;18.336;2022-10-04T21:18:22;8.77;92.89
75010;DHT22;63564;46.840;18.336;2022-10-04T21:21:49;8.89;93.27
75010;DHT22;63564;46.840;18.336;2022-10-04T21:27:50;8.89;94.05
75010;DHT22;63564;46.840;18.336;2022-10-04T21:30:50;8.58;93.62
75010;DHT22;63564;46.840;18.336;2022-10-04T21:33:50;8.54;93.12
75010;DHT22;63564;46.840;18.336;2022-10-04T21:36:51;8.68;93.30
75010;DHT22;63564;46.840;18.336;2022-10-04T21:39:51;8.65;93.28
75010;DHT22;63564;46.840;18.336;2022-10-04T21:42:51;8.51;93.30
75010;DHT22;63564;46.840;18.336;2022-10-04T21:45:52;8.65;93.34
75010;DHT22;63564;46.840;18.336;2022-10-04T21:48:52;8.59;93.57
75010;DHT22;63564;46.840;18.336;2022-10-04T21:51:52;8.66;93.26
75010;DHT22;63564;46.840;18.336;2022-10-04T21:54:53;8.77;92.96
75010;DHT22;63564;46.840;18.336;2022-10-04T21:57:53;8.96;91.70
75010;DHT22;63564;46.840;18.336;2022-10-04T22:00:53;9.06;91.55
75010;DHT22;63564;46.840;18.336;2022-10-04T22:03:54;9.11;91.21
75010;DHT22;63564;46.840;18.336;2022-10-04T22:06:54;9.06;91.77
75010;DHT22;63564;46.840;18.336;2022-10-04T22:09:54;8.30;92.88
75010;DHT22;63564;46.840;18.336;2022-10-04T22:12:55;8.23;94.54
75010;DHT22;63564;46.840;18.336;2022-10-04T22:15:56;8.23;94.33
75010;DHT22;63564;46.840;18.336;2022-10-04T22:18:56;8.46;93.32
75010;DHT22;63564;46.840;18.336;2022-10-04T22:21:56;8.58;93.37
75010;DHT22;63564;46.840;18.336;2022-10-04T22:24:57;8.55;93.45
75010;DHT22;63564;46.840;18.336;2022-10-04T22:27:59;8.25;93.84
75010;DHT22;63564;46.840;18.336;2022-10-04T22:30:59;8.20;93.47
75010;DHT22;63564;46.840;18.336;2022-10-04T22:33:59;7.73;94.98
75010;DHT22;63564;46.840;18.336;2022-10-04T22:37:01;7.65;95.12
75010;DHT22;63564;46.840;18.336;2022-10-04T22:40:02;7.85;94.46
75010;DHT22;63564;46.840;18.336;2022-10-04T22:43:03;7.90;93.79
75010;DHT22;63564;46.840;18.336;2022-10-04T22:46:03;7.82;94.08
75010;DHT22;63564;46.840;18.336;2022-10-04T22:49:15;7.77;93.77
75010;DHT22;63564;46.840;18.336;2022-10-04T22:52:24;7.34;94.95
75010;DHT22;63564;46.840;18.336;2022-10-04T22:55:25;7.30;95.28
75010;DHT22;63564;46.840;18.336;2022-10-04T22:58:25;7.41;95.65
75010;DHT22;63564;46.840;18.336;2022-10-04T23:01:26;7.27;95.86
75010;DHT22;63564;46.840;18.336;2022-10-04T23:04:27;7.20;95.84
75010;DHT22;63564;46.840;18.336;2022-10-04T23:07:27;7.07;95.84
75010;DHT22;63564;46.840;18.336;2022-10-04T23:10:27;7.12;95.87
75010;DHT22;63564;46.840;18.336;2022-10-04T23:13:28;7.27;96.01
75010;DHT22;63564;46.840;18.336;2022-10-04T23:16:29;7.25;95.56
75010;DHT22;63564;46.840;18.336;2022-10-04T23:19:29;7.15;96.52
75010;DHT22;63564;46.840;18.336;2022-10-04T23:22:29;7.21;96.74
75010;DHT22;63564;46.840;18.336;2022-10-04T23:25:30;7.25;96.39
75010;DHT22;63564;46.840;18.336;2022-10-04T23:28:30;7.28;96.45
75010;DHT22;63564;46.840;18.336;2022-10-04T23:31:31;7.24;95.81
75010;DHT22;63564;46.840;18.336;2022-10-04T23:34:33;7.36;95.75
75010;DHT22;63564;46.840;18.336;2022-10-04T23:37:34;7.38;95.22
75010;DHT22;63564;46.840;18.336;2022-10-04T23:40:34;7.30;96.37
75010;DHT22;63564;46.840;18.336;2022-10-04T23:43:35;7.27;95.72
75010;DHT22;63564;46.840;18.336;2022-10-04T23:46:35;7.36;94.72
75010;DHT22;63564;46.840;18.336;2022-10-04T23:49:35;7.36;94.96
75010;DHT22;63564;46.840;18.336;2022-10-04T23:52:37;7.49;95.22
75010;DHT22;63564;46.840;18.336;2022-10-04T23:55:40;7.59;94.59
75010;DHT22;63564;46.840;18.336;2022-10-04T23:58:41;7.65;93.86
